Terminal Aerodrome Forecast
Issued by NWS

Home | Current Version | Previous Version | Text Only | Print | Product List | Glossary On
Versions: 1 2 3 4 5 6 7 8 9 10 11 12 13
000
FTUS46 KLOX 222300
TAFPRB
TAF
KPRB 222335Z 2300/2324 20017G25KT P6SM SKC
     FM230200 20010KT P6SM SKC
     FM230700 VRB03KT P6SM SKC
     FM231300 VRB03KT 6SM BR OVC010
     FM231700 VRB05KT P6SM SKC
     FM232000 20012KT P6SM SKC
     FM232200 20015G22KT P6SM SKC=

USA.gov is the U.S. government's official web portal to all federal, state and local government web resources and services.